SAEZ/EZE METAR and TAF weather

Enter ICAO airport designator
Station Type Date Time Source
SAEZ METAR 2020/01/23 15:00 UTC NOAA

SAEZ 231500Z 05008KT CAVOK 29/18 Q1015 NOSIG


Station Type Date Time Source
SAEZ Decoded METAR 2020/01/23 15:00 UTC NOAA

Ezeiza Aerodrome, Argentina (SAEZ) 34-49S 058-32W 20M
Jan 23, 2020 - 10:00 AM EST / 2020.01.23 1500 UTC
Wind: from the NE (050 degrees) at 9 MPH (8 KT):0
Visibility: greater than 7 mile(s):0
Temperature: 84 F (29 C)
Dew Point: 64 F (18 C)
Relative Humidity: 51%
Pressure (altimeter): 29.97 in. Hg (1015 hPa)
ob: SAEZ 231500Z 05008KT CAVOK 29/18 Q1015 NOSIG
cycle: 15

Station Type Date Time Source
SAEZ TAF 2020/01/23 12:03 UTC NOAA

TAF TAF SAEZ 231100Z 2312/2412 05010KT CAVOK TX30/2318Z TN20/2409Z
TEMPO 2318/2400 05015KT
BECMG 2406/2408 36010KT

Example: see airport list